Time;durP1;ratioP1;P1;durP2;ratioP2;P2;SDS_P1;SDS_P2;PMS_P1;PMS_P2;Temp;Humidity;BMP_temperature;BMP_pressure;BME280_temperature;BME280_humidity;BME280_pressure;Samples;Min_cycle;Max_cycle;Signal;HPM_P1;HPM_P2
2023/12/04 00:00:02;;;;;;;9.37;7.27;;;;;;;2.67;68.19;93799.59;520259;28;2162;-68
2023/12/04 00:00:18;;;;;;;9.27;7.20;;;;;;;2.68;67.32;93803.81;519950;28;3096;-68
2023/12/04 00:00:34;;;;;;;8.80;6.90;;;;;;;2.68;68.17;93799.13;519750;28;4091;-68
2023/12/04 00:00:49;;;;;;;9.40;6.80;;;;;;;2.68;67.96;93801.84;521208;28;3929;-68
2023/12/04 00:01:05;;;;;;;9.20;7.05;;;;;;;2.67;68.27;93805.78;520041;28;3514;-68
2023/12/04 00:01:20;;;;;;;9.30;7.38;;;;;;;2.66;67.93;93789.94;519834;28;2592;-68
2023/12/04 00:01:43;;;;;;;9.60;7.50;;;;;;;2.65;67.82;93796.59;520146;28;3272;-68
2023/12/04 00:01:58;;;;;;;10.40;7.80;;;;;;;2.62;68.06;93794.88;519821;28;3441;-68
2023/12/04 00:02:16;;;;;;;10.00;7.53;;;;;;;2.58;68.12;93799.81;520038;28;3331;-68
2023/12/04 00:02:32;;;;;;;9.13;7.15;;;;;;;2.54;68.79;93793.84;521091;28;1858;-69
2023/12/04 00:02:47;;;;;;;9.23;7.13;;;;;;;2.34;68.58;93774.91;520552;28;3377;-68
2023/12/04 00:03:02;;;;;;;10.00;7.18;;;;;;;2.53;68.62;93795.09;519864;28;3726;-68
2023/12/04 00:03:18;;;;;;;10.13;7.50;;;;;;;2.52;68.94;93799.78;522270;28;1157;-68
2023/12/04 00:03:33;;;;;;;10.20;7.63;;;;;;;2.53;68.80;93804.00;522791;28;2385;-68
2023/12/04 00:03:49;;;;;;;10.20;7.27;;;;;;;2.53;69.33;93804.00;522489;28;3783;-68
2023/12/04 00:04:04;;;;;;;9.70;7.10;;;;;;;2.54;68.83;93799.28;522034;28;3109;-68
2023/12/04 00:04:22;;;;;;;9.63;7.30;;;;;;;2.56;69.09;93805.00;521268;28;1044;-70
2023/12/04 00:04:37;;;;;;;9.70;7.15;;;;;;;2.55;69.21;93800.78;522155;28;1944;-68
2023/12/04 00:04:53;;;;;;;8.80;6.80;;;;;;;2.54;69.62;93807.47;522456;28;3434;-68
2023/12/04 00:05:08;;;;;;;9.55;6.80;;;;;;;2.52;69.23;93802.50;522002;28;2347;-68
2023/12/04 00:05:24;;;;;;;9.57;7.30;;;;;;;2.51;69.32;93803.00;522609;28;3235;-68
2023/12/04 00:05:42;;;;;;;9.97;7.83;;;;;;;2.51;69.33;93794.81;522220;28;3047;-68
2023/12/04 00:05:58;;;;;;;10.98;7.93;;;;;;;2.51;69.80;93805.72;520659;28;3199;-69
2023/12/04 00:06:13;;;;;;;9.33;7.80;;;;;;;2.50;69.40;93801.50;520099;28;3385;-68
2023/12/04 00:06:28;;;;;;;9.25;7.53;;;;;;;2.48;69.26;93804.72;522322;28;3325;-68
2023/12/04 00:06:44;;;;;;;9.73;7.30;;;;;;;2.48;69.28;93804.72;520373;28;3029;-68
2023/12/04 00:06:59;;;;;;;10.02;7.45;;;;;;;2.49;69.27;93803.47;520507;28;2507;-68
2023/12/04 00:07:15;;;;;;;9.47;7.07;;;;;;;2.51;69.08;93808.44;519980;28;2159;-68
2023/12/04 00:07:30;;;;;;;7.78;6.63;;;;;;;2.50;69.04;93810.41;521194;28;3781;-68
2023/12/04 00:07:46;;;;;;;8.37;7.00;;;;;;;2.50;69.11;93806.94;519695;28;3340;-68
2023/12/04 00:08:01;;;;;;;8.90;7.25;;;;;;;2.48;69.28;93802.00;522190;28;2433;-68
2023/12/04 00:08:16;;;;;;;9.50;7.17;;;;;;;2.49;69.51;93805.47;521704;28;2305;-68
2023/12/04 00:08:32;;;;;;;9.53;7.20;;;;;;;2.46;69.21;93803.72;521897;28;2123;-68
2023/12/04 00:08:48;;;;;;;8.95;7.35;;;;;;;2.48;69.51;93807.44;522246;28;3274;-68
2023/12/04 00:09:03;;;;;;;10.25;7.55;;;;;;;2.49;69.52;93811.66;522558;28;3540;-68
2023/12/04 00:09:19;;;;;;;10.13;7.47;;;;;;;2.50;69.86;93815.13;522037;28;3160;-68
2023/12/04 00:09:35;;;;;;;10.02;7.57;;;;;;;2.47;69.78;93811.38;523280;28;3949;-68
2023/12/04 00:09:50;;;;;;;9.70;7.65;;;;;;;2.48;69.58;93809.41;521653;28;2563;-68
2023/12/04 00:10:06;;;;;;;9.30;7.43;;;;;;;2.41;69.36;93799.72;520887;28;3686;-68
2023/12/04 00:10:22;;;;;;;9.52;7.22;;;;;;;2.50;69.33;93815.13;520481;28;3550;-68
2023/12/04 00:10:37;;;;;;;9.65;7.50;;;;;;;2.47;70.22;93800.50;521923;28;2217;-68
2023/12/04 00:10:54;;;;;;;9.23;7.17;;;;;;;2.46;69.34;93812.63;522431;28;3114;-69
2023/12/04 00:11:09;;;;;;;9.02;6.70;;;;;;;2.44;69.41;93812.38;521996;28;3275;-68
2023/12/04 00:11:24;;;;;;;8.17;7.00;;;;;;;2.41;68.77;93813.34;520385;28;4173;-68
2023/12/04 00:11:40;;;;;;;8.67;7.37;;;;;;;2.43;68.81;93808.16;522860;28;3249;-68
2023/12/04 00:11:55;;;;;;;9.82;7.50;;;;;;;2.43;68.91;93813.59;522739;28;3233;-68
2023/12/04 00:12:11;;;;;;;10.73;7.67;;;;;;;2.39;69.67;93810.38;522109;28;3678;-68
2023/12/04 00:12:26;;;;;;;11.35;7.93;;;;;;;2.38;69.79;93803.44;522583;28;2396;-68
2023/12/04 00:12:42;;;;;;;10.50;7.53;;;;;;;2.38;69.61;93808.13;522775;28;3527;-68
2023/12/04 00:12:57;;;;;;;9.80;6.82;;;;;;;2.38;69.56;93808.13;522677;28;2888;-68
2023/12/04 00:13:13;;;;;;;10.03;7.10;;;;;;;2.38;69.68;93811.59;521282;28;3482;-68
2023/12/04 00:13:28;;;;;;;10.90;7.10;;;;;;;2.40;69.76;93809.13;522396;28;3576;-68
2023/12/04 00:13:43;;;;;;;10.40;7.27;;;;;;;2.40;69.23;93809.13;523358;28;3876;-68
2023/12/04 00:13:59;;;;;;;10.65;7.38;;;;;;;2.35;70.07;93807.13;522485;28;3378;-68
2023/12/04 00:14:15;;;;;;;10.50;7.40;;;;;;;2.39;69.91;93809.59;520714;28;2502;-70
2023/12/04 00:14:30;;;;;;;9.70;7.63;;;;;;;2.39;69.88;93813.09;520420;28;4178;-69
2023/12/04 00:14:45;;;;;;;9.20;7.37;;;;;;;2.39;69.94;93806.88;521109;28;3887;-68
2023/12/04 00:15:01;;;;;;;8.90;6.95;;;;;;;2.40;69.98;93814.59;517696;28;2250;-68
2023/12/04 00:15:19;;;;;;;9.30;7.17;;;;;;;2.37;69.69;93801.94;519987;28;3086;-68
2023/12/04 00:15:34;;;;;;;10.32;7.20;;;;;;;2.40;69.17;93814.59;520227;28;3153;-68
2023/12/04 00:15:50;;;;;;;10.03;7.23;;;;;;;2.35;69.18;93809.84;520677;28;2045;-68
2023/12/04 00:16:06;;;;;;;10.98;7.13;;;;;;;2.34;69.43;93810.34;520562;28;3202;-69
2023/12/04 00:16:21;;;;;;;10.40;7.03;;;;;;;2.29;69.31;93806.34;520277;28;3043;-68
2023/12/04 00:16:36;;;;;;;9.07;7.23;;;;;;;2.28;69.41;93802.88;520601;28;2567;-70
2023/12/04 00:16:52;;;;;;;10.30;7.43;;;;;;;2.28;69.08;93799.41;519525;28;1867;-68
2023/12/04 00:17:07;;;;;;;10.43;6.93;;;;;;;2.27;69.67;93815.00;521000;28;2132;-68
2023/12/04 00:17:23;;;;;;;10.00;7.03;;;;;;;2.28;69.84;93805.59;520654;28;3157;-68
2023/12/04 00:17:39;;;;;;;9.20;7.38;;;;;;;2.29;69.39;93809.06;520233;28;3434;-70
2023/12/04 00:17:55;;;;;;;9.40;6.93;;;;;;;2.28;69.16;93802.88;522230;28;3204;-68
2023/12/04 00:18:10;;;;;;;9.73;6.90;;;;;;;2.30;69.49;93811.31;523041;28;3962;-68
2023/12/04 00:18:26;;;;;;;8.90;6.97;;;;;;;2.32;69.28;93808.09;522435;28;3190;-68
2023/12/04 00:18:41;;;;;;;9.70;7.10;;;;;;;2.30;69.59;93807.81;522364;28;2140;-68
2023/12/04 00:18:56;;;;;;;9.27;7.30;;;;;;;2.29;69.60;93811.78;522550;28;2223;-68
2023/12/04 00:19:12;;;;;;;9.00;7.60;;;;;;;2.30;69.42;93805.09;522442;28;3542;-68
2023/12/04 00:19:27;;;;;;;9.20;7.50;;;;;;;2.32;69.72;93812.81;521773;28;3334;-68
2023/12/04 00:19:43;;;;;;;9.73;7.13;;;;;;;2.29;69.81;93809.06;521536;28;3091;-68
2023/12/04 00:19:59;;;;;;;12.00;7.40;;;;;;;2.08;69.42;93783.19;522703;28;3130;-68
2023/12/04 00:20:14;;;;;;;11.05;7.32;;;;;;;2.27;70.30;93811.53;522001;28;3106;-68
2023/12/04 00:20:29;;;;;;;9.13;7.47;;;;;;;2.28;70.31;93819.22;520868;28;3258;-68
2023/12/04 00:20:45;;;;;;;10.93;7.53;;;;;;;2.28;69.61;93821.94;523374;28;3244;-68
2023/12/04 00:21:00;;;;;;;10.33;7.10;;;;;;;2.29;70.10;93819.97;522126;28;3445;-68
2023/12/04 00:21:16;;;;;;;9.70;7.60;;;;;;;2.29;69.74;93814.53;522934;28;3399;-68
2023/12/04 00:21:31;;;;;;;10.20;8.00;;;;;;;2.27;69.79;93808.81;520807;28;3374;-68
2023/12/04 00:21:47;;;;;;;10.88;7.88;;;;;;;2.29;70.16;93811.78;520966;28;3263;-68
2023/12/04 00:22:02;;;;;;;11.50;7.83;;;;;;;2.29;69.86;93809.81;521676;28;1842;-68
2023/12/04 00:22:18;;;;;;;10.07;7.20;;;;;;;2.34;69.47;93815.78;520811;28;3516;-68
2023/12/04 00:22:33;;;;;;;8.53;6.93;;;;;;;2.06;69.53;93775.50;520526;28;3341;-68
2023/12/04 00:22:49;;;;;;;9.03;7.17;;;;;;;2.37;69.06;93817.53;522487;28;3864;-70
2023/12/04 00:23:04;;;;;;;9.20;7.40;;;;;;;2.39;68.67;93815.81;520724;28;3285;-68
2023/12/04 00:23:19;;;;;;;9.57;7.33;;;;;;;2.40;68.97;93820.03;520402;28;3760;-68
2023/12/04 00:23:35;;;;;;;9.63;6.75;;;;;;;2.42;68.83;93817.56;522721;28;1913;-68
2023/12/04 00:23:50;;;;;;;9.40;6.77;;;;;;;2.43;69.18;93821.03;520610;28;2447;-69
2023/12/04 00:24:06;;;;;;;9.73;7.15;;;;;;;2.42;68.86;93819.53;522563;28;2269;-68
2023/12/04 00:24:21;;;;;;;8.67;6.57;;;;;;;2.42;68.88;93817.56;522253;28;3892;-68
2023/12/04 00:24:37;;;;;;;8.65;6.45;;;;;;;2.44;69.00;93814.34;522506;28;1920;-70
2023/12/04 00:24:52;;;;;;;8.50;6.80;;;;;;;2.43;68.88;93810.88;522742;28;3808;-68
2023/12/04 00:25:08;;;;;;;8.53;7.03;;;;;;;2.44;69.03;93820.56;522371;28;2084;-68
2023/12/04 00:25:25;;;;;;;10.48;7.22;;;;;;;2.44;68.73;93815.09;522598;28;2701;-69
2023/12/04 00:25:41;;;;;;;9.68;7.25;;;;;;;2.43;68.77;93816.31;520881;28;1833;-68
2023/12/04 00:25:56;;;;;;;9.80;7.23;;;;;;;2.40;68.98;93816.56;522985;28;2145;-68
2023/12/04 00:26:12;;;;;;;9.85;7.13;;;;;;;2.09;69.29;93777.25;521610;28;3433;-68
2023/12/04 00:26:28;;;;;;;9.65;7.15;;;;;;;2.36;69.03;93824.94;522162;28;3246;-68
2023/12/04 00:26:43;;;;;;;8.77;7.00;;;;;;;2.37;69.25;93817.53;522184;28;3142;-68
2023/12/04 00:26:59;;;;;;;9.35;6.82;;;;;;;2.38;69.67;93814.34;522737;28;3169;-68
2023/12/04 00:27:14;;;;;;;9.80;6.67;;;;;;;2.39;69.13;93817.78;522180;28;3084;-68
2023/12/04 00:27:30;;;;;;;9.90;6.88;;;;;;;2.40;69.29;93814.59;520959;28;3360;-68
2023/12/04 00:27:45;;;;;;;10.47;7.23;;;;;;;2.43;69.16;93818.28;522570;28;3508;-68
2023/12/04 00:28:01;;;;;;;8.40;6.72;;;;;;;2.43;69.05;93819.06;522757;28;2412;-68
2023/12/04 00:28:16;;;;;;;8.40;7.13;;;;;;;2.44;68.70;93817.06;522402;28;1805;-68
2023/12/04 00:28:32;;;;;;;8.65;7.00;;;;;;;2.45;68.81;93818.59;521172;28;3358;-69
2023/12/04 00:28:47;;;;;;;8.07;6.53;;;;;;;2.43;68.58;93818.28;522359;28;2273;-69
2023/12/04 00:29:02;;;;;;;8.97;6.23;;;;;;;2.41;68.85;93823.50;522554;28;3128;-68
2023/12/04 00:29:18;;;;;;;8.00;5.70;;;;;;;2.38;68.69;93814.34;522110;28;2238;-68
2023/12/04 00:29:33;;;;;;;7.17;6.00;;;;;;;2.35;68.79;93818.03;523286;28;3194;-68
2023/12/04 00:29:49;;;;;;;8.38;6.85;;;;;;;2.34;68.61;93813.06;520935;28;1909;-68
2023/12/04 00:30:05;;;;;;;9.13;7.33;;;;;;;2.33;68.39;93815.03;520932;28;2243;-68
2023/12/04 00:30:21;;;;;;;8.57;7.07;;;;;;;2.33;68.83;93814.28;519801;28;3103;-68
2023/12/04 00:30:36;;;;;;;9.77;7.17;;;;;;;2.30;68.81;93816.75;520522;28;3616;-68
2023/12/04 00:30:52;;;;;;;10.63;7.25;;;;;;;2.29;68.89;93826.19;520144;28;3533;-69
2023/12/04 00:31:08;;;;;;;9.43;7.13;;;;;;;2.29;68.78;93828.91;522512;28;2684;-68
2023/12/04 00:31:24;;;;;;;7.93;6.90;;;;;;;2.28;68.90;93818.47;522137;28;3315;-69
2023/12/04 00:31:39;;;;;;;8.17;7.10;;;;;;;2.23;69.07;93821.91;521800;28;3798;-68
2023/12/04 00:31:56;;;;;;;9.23;7.57;;;;;;;2.18;69.03;93828.06;523045;28;1865;-68
2023/12/04 00:32:12;;;;;;;9.77;7.38;;;;;;;2.18;69.25;93828.81;521160;28;3251;-68
2023/12/04 00:32:27;;;;;;;9.17;6.93;;;;;;;2.16;69.62;93822.38;521297;28;3683;-69
2023/12/04 00:32:43;;;;;;;9.68;7.28;;;;;;;2.12;69.83;93822.56;520675;28;2497;-68
2023/12/04 00:32:58;;;;;;;8.87;6.80;;;;;;;2.13;69.76;93826.03;520183;28;3549;-68
2023/12/04 00:33:14;;;;;;;7.97;6.50;;;;;;;1.90;69.46;93802.63;520641;28;3722;-68
2023/12/04 00:33:29;;;;;;;9.23;6.77;;;;;;;2.08;69.28;93830.22;519857;28;2308;-68
2023/12/04 00:33:45;;;;;;;9.45;6.82;;;;;;;2.02;69.29;93831.41;521114;28;2168;-68
2023/12/04 00:34:00;;;;;;;9.30;7.10;;;;;;;2.00;69.69;93823.72;520152;28;3263;-68
2023/12/04 00:34:16;;;;;;;9.57;7.10;;;;;;;2.03;69.49;93830.19;520826;28;3712;-69
2023/12/04 00:34:31;;;;;;;9.27;6.97;;;;;;;2.04;69.46;93831.66;522475;28;3242;-68
2023/12/04 00:34:47;;;;;;;9.32;7.03;;;;;;;2.06;69.76;93831.94;523238;28;3166;-68
2023/12/04 00:35:02;;;;;;;10.03;7.07;;;;;;;2.07;70.06;93828.75;520537;28;3136;-68
2023/12/04 00:35:18;;;;;;;11.05;6.97;;;;;;;2.08;69.74;93832.22;520378;28;3270;-68
2023/12/04 00:35:33;;;;;;;10.73;7.25;;;;;;;2.09;70.08;93834.44;519886;28;1876;-68
2023/12/04 00:35:49;;;;;;;10.10;7.57;;;;;;;2.09;69.88;93837.16;519004;28;3250;-69
2023/12/04 00:36:05;;;;;;;9.27;7.57;;;;;;;2.11;69.97;93825.78;518741;28;3374;-68
2023/12/04 00:36:20;;;;;;;8.30;7.30;;;;;;;2.11;69.90;93831.97;519370;28;2938;-68
2023/12/04 00:36:36;;;;;;;8.85;7.25;;;;;;;2.13;69.76;93826.81;518404;28;3009;-68
2023/12/04 00:36:51;;;;;;;9.23;7.27;;;;;;;2.14;69.70;93828.28;518968;28;2139;-69
2023/12/04 00:37:06;;;;;;;9.77;6.97;;;;;;;2.15;69.94;93829.03;518363;28;3900;-68
2023/12/04 00:37:22;;;;;;;11.03;7.40;;;;;;;2.16;69.83;93827.81;518420;28;2992;-68
2023/12/04 00:37:38;;;;;;;9.07;7.25;;;;;;;2.15;69.97;93832.50;518031;28;4314;-68
2023/12/04 00:37:53;;;;;;;7.88;7.07;;;;;;;2.17;69.91;93832.75;521212;28;3294;-68
2023/12/04 00:38:09;;;;;;;9.23;7.77;;;;;;;2.19;70.39;93829.53;520155;28;3382;-68
2023/12/04 00:38:24;;;;;;;11.10;8.20;;;;;;;2.20;69.77;93833.78;522422;28;3874;-68
2023/12/04 00:38:40;;;;;;;9.35;7.50;;;;;;;2.19;70.13;93827.56;522765;28;3461;-68
2023/12/04 00:38:55;;;;;;;8.37;6.93;;;;;;;2.21;70.01;93830.56;523344;28;2556;-68
2023/12/04 00:39:11;;;;;;;10.00;7.37;;;;;;;2.21;69.55;93830.56;522183;28;3079;-68
2023/12/04 00:39:26;;;;;;;10.17;7.40;;;;;;;2.22;69.99;93831.31;522987;28;3300;-68
2023/12/04 00:39:42;;;;;;;9.90;7.27;;;;;;;2.22;70.12;93836.75;522644;28;3786;-68
2023/12/04 00:39:58;;;;;;;10.73;7.60;;;;;;;2.22;69.82;93828.59;518657;28;3409;-68
2023/12/04 00:40:13;;;;;;;10.77;7.77;;;;;;;2.23;69.84;93830.09;517794;28;2401;-68
2023/12/04 00:40:29;;;;;;;10.82;8.38;;;;;;;2.24;70.06;93835.03;518817;28;3172;-68
2023/12/04 00:40:44;;;;;;;10.87;8.43;;;;;;;2.26;70.18;93823.66;518346;28;3485;-68
2023/12/04 00:40:59;;;;;;;11.25;8.15;;;;;;;2.28;70.82;93840.25;518821;28;2696;-68
2023/12/04 00:41:15;;;;;;;10.60;7.67;;;;;;;2.29;70.65;93834.34;517972;28;3077;-68
2023/12/04 00:41:31;;;;;;;10.40;7.60;;;;;;;2.31;70.99;93828.41;520319;28;3359;-68
2023/12/04 00:41:46;;;;;;;9.33;7.77;;;;;;;2.34;70.80;93827.41;520416;28;2984;-68
2023/12/04 00:42:02;;;;;;;8.30;7.18;;;;;;;2.36;70.51;93833.13;523470;28;993;-68
2023/12/04 00:42:17;;;;;;;9.67;7.20;;;;;;;2.34;70.42;93841.03;521483;28;3500;-68
2023/12/04 00:42:33;;;;;;;10.50;7.00;;;;;;;2.33;70.73;93831.38;523281;28;2633;-68
2023/12/04 00:42:48;;;;;;;9.10;6.85;;;;;;;2.33;70.54;93827.91;522529;28;2290;-68
2023/12/04 00:43:04;;;;;;;8.63;7.07;;;;;;;2.36;70.23;93835.84;523007;28;3172;-68
2023/12/04 00:43:19;;;;;;;9.68;7.28;;;;;;;2.37;69.50;93836.59;522010;28;3805;-68
2023/12/04 00:43:35;;;;;;;10.07;7.23;;;;;;;2.38;69.32;93835.38;522381;28;2507;-68
2023/12/04 00:43:50;;;;;;;9.73;7.03;;;;;;;2.33;69.21;93831.38;522724;28;2234;-68
2023/12/04 00:44:05;;;;;;;8.50;7.07;;;;;;;2.32;69.32;93834.59;522646;28;3446;-68
2023/12/04 00:44:21;;;;;;;8.50;6.60;;;;;;;2.30;69.80;93833.09;521014;28;2195;-68
2023/12/04 00:44:36;;;;;;;8.68;6.20;;;;;;;2.24;69.12;93831.56;522184;28;3092;-68
2023/12/04 00:44:52;;;;;;;7.83;6.40;;;;;;;2.23;69.15;93839.00;520467;28;3461;-68
2023/12/04 00:45:08;;;;;;;7.88;6.60;;;;;;;2.25;69.10;93841.25;521267;28;3798;-68
2023/12/04 00:45:24;;;;;;;8.55;6.97;;;;;;;2.26;69.19;93831.81;520369;28;2979;-68
2023/12/04 00:45:39;;;;;;;8.77;7.15;;;;;;;2.26;69.51;93842.72;521184;28;3217;-68
2023/12/04 00:45:55;;;;;;;9.23;7.00;;;;;;;2.23;69.60;93832.81;520589;28;2364;-68
2023/12/04 00:46:10;;;;;;;8.95;7.03;;;;;;;2.24;69.07;93835.03;522449;28;3052;-68
2023/12/04 00:46:26;;;;;;;7.97;6.93;;;;;;;2.25;69.19;93835.81;521982;28;3361;-68
2023/12/04 00:46:41;;;;;;;7.83;6.60;;;;;;;2.27;69.58;93838.78;523808;28;3370;-68
2023/12/04 00:46:57;;;;;;;7.75;6.32;;;;;;;2.28;69.28;93842.97;522466;28;2585;-68
2023/12/04 00:47:12;;;;;;;7.95;6.47;;;;;;;2.29;69.06;93841.75;522866;28;3306;-68
2023/12/04 00:47:28;;;;;;;8.17;6.67;;;;;;;2.30;69.29;93840.53;522077;28;2114;-68
2023/12/04 00:47:43;;;;;;;8.00;6.57;;;;;;;2.30;69.44;93838.53;522995;28;3234;-68
2023/12/04 00:47:59;;;;;;;8.77;6.57;;;;;;;2.30;69.13;93844.00;522004;28;2378;-68
2023/12/04 00:48:14;;;;;;;9.40;6.93;;;;;;;2.30;69.95;93837.78;520944;28;1572;-68
2023/12/04 00:48:30;;;;;;;9.80;7.47;;;;;;;2.30;69.87;93844.00;520744;28;2222;-68
2023/12/04 00:48:46;;;;;;;10.23;7.05;;;;;;;2.31;69.61;93842.03;520681;28;3083;-68
2023/12/04 00:49:01;;;;;;;10.63;6.68;;;;;;;2.30;69.42;93840.53;520461;28;3093;-68
2023/12/04 00:49:17;;;;;;;10.07;6.80;;;;;;;2.32;69.04;93834.59;520493;28;2043;-68
2023/12/04 00:49:32;;;;;;;9.00;6.72;;;;;;;2.33;69.74;93846.97;521480;28;3453;-68
2023/12/04 00:49:48;;;;;;;8.40;6.33;;;;;;;2.33;69.45;93836.84;520841;28;3132;-68
2023/12/04 00:50:04;;;;;;;8.48;6.40;;;;;;;2.34;69.39;93835.59;521220;28;1834;-68
2023/12/04 00:50:19;;;;;;;8.77;6.97;;;;;;;2.35;69.58;93839.81;522533;28;3211;-68
2023/12/04 00:50:34;;;;;;;8.13;6.83;;;;;;;2.37;69.50;93836.59;522837;28;2199;-69
2023/12/04 00:50:51;;;;;;;7.53;6.67;;;;;;;2.39;69.45;93834.88;522750;28;3389;-69
2023/12/04 00:51:07;;;;;;;7.97;6.53;;;;;;;2.40;69.47;93836.38;522327;28;3689;-69
2023/12/04 00:51:22;;;;;;;8.07;6.10;;;;;;;2.42;68.43;93831.19;522791;28;2887;-69
2023/12/04 00:51:38;;;;;;;7.33;6.00;;;;;;;2.43;69.06;93842.81;522714;28;1917;-69
2023/12/04 00:51:54;;;;;;;7.43;6.50;;;;;;;2.44;68.43;93836.91;523285;28;3393;-69
2023/12/04 00:52:09;;;;;;;7.97;6.65;;;;;;;2.43;68.71;93835.41;521669;28;2149;-69
2023/12/04 00:52:24;;;;;;;8.00;6.40;;;;;;;2.41;68.19;93835.13;522975;28;3447;-68
2023/12/04 00:52:40;;;;;;;7.43;6.30;;;;;;;2.40;68.48;93832.91;522521;28;1606;-68
2023/12/04 00:52:55;;;;;;;7.60;6.80;;;;;;;2.39;68.45;93836.84;523335;28;3909;-68
2023/12/04 00:53:11;;;;;;;8.67;6.70;;;;;;;2.39;68.43;93837.59;522684;28;3131;-68
2023/12/04 00:53:26;;;;;;;9.27;6.63;;;;;;;2.40;68.86;93830.94;522113;28;3754;-68
2023/12/04 00:53:42;;;;;;;8.20;6.77;;;;;;;2.41;68.86;93832.41;521657;28;1094;-68
2023/12/04 00:53:57;;;;;;;8.63;6.85;;;;;;;2.42;68.91;93835.91;521159;28;3822;-68
2023/12/04 00:54:12;;;;;;;9.60;7.30;;;;;;;2.41;69.11;93837.13;522834;28;956;-68
2023/12/04 00:54:28;;;;;;;9.20;7.00;;;;;;;2.41;68.82;93837.13;522157;28;1833;-68
2023/12/04 00:54:43;;;;;;;8.88;6.60;;;;;;;2.39;68.73;93834.88;520784;28;2050;-69
2023/12/04 00:54:59;;;;;;;8.88;7.10;;;;;;;2.38;68.77;93833.41;520319;28;2822;-68
2023/12/04 00:55:14;;;;;;;9.10;7.47;;;;;;;2.37;68.82;93839.31;520366;28;1940;-69
2023/12/04 00:55:30;;;;;;;9.20;7.00;;;;;;;2.36;68.80;93838.56;520480;28;3354;-68
2023/12/04 00:55:45;;;;;;;8.65;6.60;;;;;;;2.26;68.86;93826.38;520646;28;1101;-69
2023/12/04 00:56:01;;;;;;;8.47;6.90;;;;;;;2.35;69.24;93839.06;521009;28;3208;-68
2023/12/04 00:56:16;;;;;;;8.73;7.00;;;;;;;2.35;69.03;93842.53;520182;28;2181;-69
2023/12/04 00:56:32;;;;;;;8.73;6.63;;;;;;;2.35;68.79;93839.06;520432;28;3429;-69
2023/12/04 00:56:47;;;;;;;10.55;6.90;;;;;;;2.36;69.51;93841.28;520862;28;2955;-68
2023/12/04 00:57:02;;;;;;;10.73;7.00;;;;;;;2.35;70.05;93839.81;520917;28;3310;-69
2023/12/04 00:57:18;;;;;;;9.00;6.78;;;;;;;2.35;69.84;93847.22;521672;28;3213;-69
2023/12/04 00:57:33;;;;;;;8.60;7.03;;;;;;;2.36;69.40;93844.03;522815;28;3357;-69
2023/12/04 00:57:49;;;;;;;7.90;6.72;;;;;;;2.36;69.72;93846.75;521252;28;2626;-69
2023/12/04 00:58:04;;;;;;;7.70;6.33;;;;;;;2.36;69.90;93838.56;521009;28;1889;-68
2023/12/04 00:58:20;;;;;;;10.30;6.63;;;;;;;2.38;69.63;93840.81;519953;28;2075;-68
2023/12/04 00:58:35;;;;;;;11.70;6.90;;;;;;;2.40;69.67;93843.81;520064;28;3220;-69
2023/12/04 00:58:51;;;;;;;9.02;6.63;;;;;;;2.39;69.05;93847.75;520310;28;3392;-68
2023/12/04 00:59:10;;;;;;;9.13;7.03;;;;;;;2.18;69.63;93800.84;521209;28;3217;-68
2023/12/04 00:59:25;;;;;;;8.90;6.63;;;;;;;2.40;68.63;93844.56;521552;28;2038;-68
2023/12/04 00:59:41;;;;;;;7.77;6.40;;;;;;;2.40;68.71;93841.84;519936;28;2320;-69
2023/12/04 00:59:56;;;;;;;7.32;6.38;;;;;;;2.40;68.52;93839.13;520941;28;2313;-69
2023/12/04 01:00:12;;;;;;;8.83;6.37;;;;;;;2.41;68.73;93848.75;520049;28;3618;-69
2023/12/04 01:00:28;;;;;;;9.02;6.80;;;;;;;2.40;68.82;93847.28;520091;28;3257;-69
2023/12/04 01:00:43;;;;;;;8.82;6.80;;;;;;;2.40;68.01;93847.28;520365;28;3661;-69
2023/12/04 01:00:59;;;;;;;8.50;6.90;;;;;;;2.40;67.85;93841.09;521637;28;3261;-69
2023/12/04 01:01:15;;;;;;;7.53;6.55;;;;;;;2.41;67.55;93853.47;519481;28;3346;-68
2023/12/04 01:01:30;;;;;;;8.95;6.55;;;;;;;2.32;67.41;93850.94;520399;28;2117;-69
2023/12/04 01:01:46;;;;;;;9.10;6.47;;;;;;;2.24;68.21;93847.91;520749;28;3735;-69
2023/12/04 01:02:01;;;;;;;8.70;6.25;;;;;;;2.12;68.46;93843.63;521064;28;2598;-69
2023/12/04 01:02:16;;;;;;;9.30;6.63;;;;;;;2.11;69.02;93850.28;519917;28;3508;-68
2023/12/04 01:02:32;;;;;;;9.15;6.70;;;;;;;2.09;68.81;93847.31;520452;28;3792;-69
2023/12/04 01:02:47;;;;;;;8.37;6.80;;;;;;;2.11;69.07;93855.75;520525;28;3769;-69
2023/12/04 01:03:03;;;;;;;7.65;6.68;;;;;;;2.12;68.77;93852.53;520733;28;2252;-68
2023/12/04 01:03:18;;;;;;;8.07;6.60;;;;;;;2.12;69.42;93854.53;519568;28;2612;-69
2023/12/04 01:03:34;;;;;;;8.07;6.68;;;;;;;2.12;69.29;93851.81;521187;28;2762;-68
2023/12/04 01:03:49;;;;;;;7.40;6.40;;;;;;;2.12;69.44;93854.53;521576;28;3257;-68
2023/12/04 01:04:04;;;;;;;8.50;6.37;;;;;;;2.14;69.20;93860.22;522279;28;2081;-68
2023/12/04 01:04:20;;;;;;;9.95;6.88;;;;;;;2.14;69.19;93852.78;521089;28;3439;-68
2023/12/04 01:04:36;;;;;;;9.00;7.20;;;;;;;2.16;68.95;93855.06;522605;28;1070;-68
2023/12/04 01:04:51;;;;;;;8.15;7.03;;;;;;;2.17;69.05;93854.56;519904;28;3199;-69
2023/12/04 01:05:07;;;;;;;7.77;6.37;;;;;;;2.19;69.15;93854.06;520039;28;3456;-68
2023/12/04 01:05:22;;;;;;;8.43;6.72;;;;;;;2.22;68.99;93853.09;519966;28;3504;-68
2023/12/04 01:05:37;;;;;;;8.63;6.93;;;;;;;2.23;69.58;93852.59;520729;28;3691;-70
2023/12/04 01:05:53;;;;;;;8.73;7.07;;;;;;;2.25;69.17;93854.88;521240;28;3907;-69
2023/12/04 01:06:09;;;;;;;8.63;6.97;;;;;;;2.25;69.15;93852.16;520628;28;3185;-68
2023/12/04 01:06:25;;;;;;;8.55;6.70;;;;;;;2.24;69.02;93853.38;519155;28;2290;-68
2023/12/04 01:06:40;;;;;;;9.30;6.90;;;;;;;2.20;68.92;93855.56;519104;28;1931;-69
2023/12/04 01:06:56;;;;;;;9.70;7.13;;;;;;;2.12;68.72;93857.25;518883;28;3233;-70
2023/12/04 01:07:11;;;;;;;8.90;6.70;;;;;;;1.97;68.76;93856.63;518773;28;3398;-68
2023/12/04 01:07:27;;;;;;;8.38;6.65;;;;;;;1.83;69.68;93857.50;519453;28;3143;-69
2023/12/04 01:07:42;;;;;;;9.17;7.07;;;;;;;1.80;69.66;93855.75;521023;28;1164;-68
2023/12/04 01:07:58;;;;;;;9.70;7.38;;;;;;;1.78;69.58;93858.19;519674;28;3300;-68
2023/12/04 01:08:13;;;;;;;9.13;6.73;;;;;;;1.78;69.43;93858.19;521382;28;2404;-68
2023/12/04 01:08:29;;;;;;;8.07;6.45;;;;;;;1.74;69.25;93858.41;520367;28;3448;-68
2023/12/04 01:08:44;;;;;;;8.17;7.03;;;;;;;1.72;68.95;93855.44;521922;28;3264;-68
2023/12/04 01:09:00;;;;;;;8.23;6.80;;;;;;;1.73;69.08;93861.63;520104;28;3099;-68
2023/12/04 01:09:15;;;;;;;9.07;6.87;;;;;;;1.76;69.09;93863.38;519414;28;3808;-68
2023/12/04 01:09:31;;;;;;;8.68;6.70;;;;;;;1.75;68.92;93859.94;521688;28;3132;-68
2023/12/04 01:09:46;;;;;;;7.37;6.37;;;;;;;1.78;68.87;93861.66;520584;28;3430;-68
2023/12/04 01:10:02;;;;;;;7.18;6.45;;;;;;;1.82;68.87;93856.03;520881;28;2197;-68
2023/12/04 01:10:17;;;;;;;8.50;6.67;;;;;;;1.85;69.11;93855.03;517801;28;3493;-68
2023/12/04 01:10:33;;;;;;;9.63;6.70;;;;;;;1.88;68.84;93859.53;518053;28;2098;-68
2023/12/04 01:10:48;;;;;;;8.88;6.70;;;;;;;1.91;68.85;93867.47;518064;28;3079;-68
2023/12/04 01:11:04;;;;;;;8.48;6.53;;;;;;;1.95;68.26;93854.38;519203;28;2280;-68
2023/12/04 01:11:19;;;;;;;8.67;6.23;;;;;;;1.70;68.22;93813.59;519994;28;4161;-68
2023/12/04 01:11:36;;;;;;;8.52;6.25;;;;;;;1.98;68.12;93858.88;520781;28;3378;-68
2023/12/04 01:11:53;;;;;;;7.63;6.20;;;;;;;1.97;68.24;93857.38;518957;28;994;-68
2023/12/04 01:12:08;;;;;;;8.52;6.45;;;;;;;2.04;68.72;93861.63;518869;28;3354;-68
2023/12/04 01:12:26;;;;;;;7.70;6.07;;;;;;;2.03;68.45;93868.31;520698;28;1768;-68
2023/12/04 01:12:41;;;;;;;7.47;6.03;;;;;;;2.01;67.98;93865.34;521312;28;3070;-68
2023/12/04 01:12:57;;;;;;;7.87;6.20;;;;;;;2.02;68.53;93861.38;520320;28;3307;-68
2023/12/04 01:13:13;;;;;;;8.63;6.57;;;;;;;2.03;68.05;93858.19;520397;28;3314;-68
2023/12/04 01:13:28;;;;;;;9.70;6.45;;;;;;;2.04;68.60;93859.66;520804;28;3209;-68
2023/12/04 01:13:44;;;;;;;9.80;6.77;;;;;;;2.04;68.27;93865.09;520536;28;3149;-68
2023/12/04 01:13:59;;;;;;;9.30;6.57;;;;;;;2.04;69.05;93858.91;522229;28;3357;-68
2023/12/04 01:14:15;;;;;;;8.60;6.40;;;;;;;2.02;69.03;93866.81;520575;28;3160;-68
2023/12/04 01:14:30;;;;;;;8.63;6.50;;;;;;;2.03;68.74;93862.88;522724;28;2355;-68
2023/12/04 01:14:46;;;;;;;8.18;6.50;;;;;;;2.03;68.74;93866.34;522111;28;3233;-70
2023/12/04 01:15:02;;;;;;;8.70;6.33;;;;;;;2.05;68.84;93863.13;522733;28;3464;-68
2023/12/04 01:15:17;;;;;;;9.55;6.65;;;;;;;2.02;69.06;93864.84;520847;28;1142;-67
2023/12/04 01:15:33;;;;;;;11.13;7.03;;;;;;;2.00;69.03;93866.56;521702;28;2352;-68
2023/12/04 01:15:49;;;;;;;10.67;6.50;;;;;;;2.00;68.59;93861.09;522210;28;3670;-68